sensor_id;sensor_type;location;lat;lon;timestamp;P1;durP1;ratioP1;P2;durP2;ratioP2
26756;SDS011;23848;49.798;10.228;2022-08-21T00:00:19;6.70;;;4.43;;
26756;SDS011;23848;49.798;10.228;2022-08-21T00:02:48;8.88;;;5.43;;
26756;SDS011;23848;49.798;10.228;2022-08-21T00:05:17;7.95;;;5.70;;
26756;SDS011;23848;49.798;10.228;2022-08-21T00:07:45;9.30;;;5.50;;
26756;SDS011;23848;49.798;10.228;2022-08-21T00:10:15;9.15;;;6.30;;
26756;SDS011;23848;49.798;10.228;2022-08-21T00:12:44;8.98;;;5.55;;
26756;SDS011;23848;49.798;10.228;2022-08-21T00:15:13;7.93;;;5.20;;
26756;SDS011;23848;49.798;10.228;2022-08-21T00:17:42;6.30;;;4.85;;
26756;SDS011;23848;49.798;10.228;2022-08-21T00:20:11;6.82;;;4.45;;
26756;SDS011;23848;49.798;10.228;2022-08-21T00:22:40;6.50;;;4.85;;
26756;SDS011;23848;49.798;10.228;2022-08-21T00:25:09;6.65;;;4.35;;
26756;SDS011;23848;49.798;10.228;2022-08-21T00:27:39;8.95;;;4.18;;
26756;SDS011;23848;49.798;10.228;2022-08-21T00:30:10;6.60;;;4.32;;
26756;SDS011;23848;49.798;10.228;2022-08-21T00:32:48;6.82;;;4.00;;
26756;SDS011;23848;49.798;10.228;2022-08-21T00:35:18;5.57;;;3.70;;
26756;SDS011;23848;49.798;10.228;2022-08-21T00:37:47;7.32;;;4.15;;
26756;SDS011;23848;49.798;10.228;2022-08-21T00:40:16;8.00;;;4.25;;
26756;SDS011;23848;49.798;10.228;2022-08-21T00:42:46;10.55;;;4.47;;
26756;SDS011;23848;49.798;10.228;2022-08-21T00:45:19;5.78;;;4.13;;
26756;SDS011;23848;49.798;10.228;2022-08-21T00:47:48;7.18;;;4.05;;
26756;SDS011;23848;49.798;10.228;2022-08-21T00:50:17;7.05;;;4.07;;
26756;SDS011;23848;49.798;10.228;2022-08-21T00:52:47;7.03;;;4.25;;
26756;SDS011;23848;49.798;10.228;2022-08-21T00:55:16;7.40;;;3.95;;
26756;SDS011;23848;49.798;10.228;2022-08-21T00:57:50;6.72;;;4.05;;
26756;SDS011;23848;49.798;10.228;2022-08-21T01:00:20;4.65;;;3.50;;
26756;SDS011;23848;49.798;10.228;2022-08-21T01:02:49;7.53;;;4.35;;
26756;SDS011;23848;49.798;10.228;2022-08-21T01:05:17;6.63;;;4.35;;
26756;SDS011;23848;49.798;10.228;2022-08-21T01:07:46;5.38;;;4.03;;
26756;SDS011;23848;49.798;10.228;2022-08-21T01:10:15;5.68;;;3.92;;
26756;SDS011;23848;49.798;10.228;2022-08-21T01:12:51;6.70;;;4.38;;
26756;SDS011;23848;49.798;10.228;2022-08-21T01:15:21;5.70;;;4.28;;
26756;SDS011;23848;49.798;10.228;2022-08-21T01:17:51;5.88;;;3.95;;
26756;SDS011;23848;49.798;10.228;2022-08-21T01:20:20;6.13;;;4.70;;
26756;SDS011;23848;49.798;10.228;2022-08-21T01:22:59;6.40;;;3.80;;
26756;SDS011;23848;49.798;10.228;2022-08-21T01:25:27;7.75;;;4.68;;
26756;SDS011;23848;49.798;10.228;2022-08-21T01:27:55;6.15;;;4.03;;
26756;SDS011;23848;49.798;10.228;2022-08-21T01:30:26;6.35;;;4.30;;
26756;SDS011;23848;49.798;10.228;2022-08-21T01:32:55;6.43;;;4.43;;
26756;SDS011;23848;49.798;10.228;2022-08-21T01:35:24;6.03;;;3.90;;
26756;SDS011;23848;49.798;10.228;2022-08-21T01:37:52;5.60;;;4.20;;
26756;SDS011;23848;49.798;10.228;2022-08-21T01:40:22;6.03;;;4.30;;
26756;SDS011;23848;49.798;10.228;2022-08-21T01:42:51;6.18;;;4.20;;
26756;SDS011;23848;49.798;10.228;2022-08-21T01:45:19;6.72;;;4.30;;
26756;SDS011;23848;49.798;10.228;2022-08-21T01:47:48;8.18;;;5.20;;
26756;SDS011;23848;49.798;10.228;2022-08-21T01:50:17;7.70;;;4.22;;
26756;SDS011;23848;49.798;10.228;2022-08-21T01:52:46;5.55;;;4.35;;
26756;SDS011;23848;49.798;10.228;2022-08-21T01:55:15;6.97;;;4.28;;
26756;SDS011;23848;49.798;10.228;2022-08-21T01:57:46;5.68;;;4.30;;
26756;SDS011;23848;49.798;10.228;2022-08-21T02:00:17;6.72;;;4.80;;
26756;SDS011;23848;49.798;10.228;2022-08-21T02:02:46;7.65;;;4.63;;
26756;SDS011;23848;49.798;10.228;2022-08-21T02:05:15;7.13;;;5.28;;
26756;SDS011;23848;49.798;10.228;2022-08-21T02:07:46;6.07;;;4.43;;
26756;SDS011;23848;49.798;10.228;2022-08-21T02:10:16;5.57;;;4.20;;
26756;SDS011;23848;49.798;10.228;2022-08-21T02:12:46;6.25;;;4.22;;
26756;SDS011;23848;49.798;10.228;2022-08-21T02:15:14;5.82;;;4.20;;
26756;SDS011;23848;49.798;10.228;2022-08-21T02:17:45;5.50;;;4.43;;
26756;SDS011;23848;49.798;10.228;2022-08-21T02:20:15;6.78;;;4.28;;
26756;SDS011;23848;49.798;10.228;2022-08-21T02:22:44;6.43;;;4.22;;
26756;SDS011;23848;49.798;10.228;2022-08-21T02:25:13;5.50;;;4.20;;
26756;SDS011;23848;49.798;10.228;2022-08-21T02:27:42;6.93;;;4.72;;
26756;SDS011;23848;49.798;10.228;2022-08-21T02:30:13;5.85;;;4.10;;
26756;SDS011;23848;49.798;10.228;2022-08-21T02:32:42;6.45;;;4.82;;
26756;SDS011;23848;49.798;10.228;2022-08-21T02:35:10;7.50;;;4.20;;
26756;SDS011;23848;49.798;10.228;2022-08-21T02:37:42;8.80;;;4.30;;
26756;SDS011;23848;49.798;10.228;2022-08-21T02:40:11;6.25;;;4.28;;
26756;SDS011;23848;49.798;10.228;2022-08-21T02:42:39;7.13;;;4.43;;
26756;SDS011;23848;49.798;10.228;2022-08-21T02:45:10;7.75;;;5.28;;
26756;SDS011;23848;49.798;10.228;2022-08-21T02:47:40;6.32;;;4.35;;
26756;SDS011;23848;49.798;10.228;2022-08-21T02:50:08;6.05;;;4.80;;
26756;SDS011;23848;49.798;10.228;2022-08-21T02:52:36;7.00;;;4.80;;
26756;SDS011;23848;49.798;10.228;2022-08-21T02:55:05;6.45;;;4.72;;
26756;SDS011;23848;49.798;10.228;2022-08-21T02:57:33;6.90;;;4.88;;
26756;SDS011;23848;49.798;10.228;2022-08-21T03:00:02;6.35;;;4.75;;
26756;SDS011;23848;49.798;10.228;2022-08-21T03:02:31;7.85;;;4.82;;
26756;SDS011;23848;49.798;10.228;2022-08-21T03:05:02;8.57;;;4.57;;
26756;SDS011;23848;49.798;10.228;2022-08-21T03:07:31;6.70;;;4.80;;
26756;SDS011;23848;49.798;10.228;2022-08-21T03:10:00;8.10;;;4.80;;
26756;SDS011;23848;49.798;10.228;2022-08-21T03:12:28;6.63;;;4.47;;
26756;SDS011;23848;49.798;10.228;2022-08-21T03:14:56;7.68;;;5.35;;
26756;SDS011;23848;49.798;10.228;2022-08-21T03:17:25;7.50;;;5.03;;
26756;SDS011;23848;49.798;10.228;2022-08-21T03:19:55;6.90;;;4.90;;
26756;SDS011;23848;49.798;10.228;2022-08-21T03:22:25;6.85;;;5.05;;
26756;SDS011;23848;49.798;10.228;2022-08-21T03:24:56;7.13;;;5.53;;
26756;SDS011;23848;49.798;10.228;2022-08-21T03:27:25;6.93;;;4.93;;
26756;SDS011;23848;49.798;10.228;2022-08-21T03:29:55;8.68;;;5.45;;
26756;SDS011;23848;49.798;10.228;2022-08-21T03:32:23;6.85;;;5.22;;
26756;SDS011;23848;49.798;10.228;2022-08-21T03:34:52;9.38;;;5.25;;
26756;SDS011;23848;49.798;10.228;2022-08-21T03:37:20;6.93;;;5.43;;
26756;SDS011;23848;49.798;10.228;2022-08-21T03:39:50;8.20;;;5.47;;
26756;SDS011;23848;49.798;10.228;2022-08-21T03:42:18;7.80;;;5.00;;
26756;SDS011;23848;49.798;10.228;2022-08-21T03:44:47;7.78;;;5.40;;
26756;SDS011;23848;49.798;10.228;2022-08-21T03:47:15;7.72;;;5.50;;
26756;SDS011;23848;49.798;10.228;2022-08-21T03:49:44;6.82;;;4.78;;
26756;SDS011;23848;49.798;10.228;2022-08-21T03:52:12;7.53;;;5.20;;
26756;SDS011;23848;49.798;10.228;2022-08-21T03:54:41;6.28;;;4.70;;
26756;SDS011;23848;49.798;10.228;2022-08-21T03:57:11;7.00;;;5.13;;
26756;SDS011;23848;49.798;10.228;2022-08-21T03:59:39;6.97;;;4.85;;
26756;SDS011;23848;49.798;10.228;2022-08-21T04:02:09;6.88;;;4.60;;
26756;SDS011;23848;49.798;10.228;2022-08-21T04:04:37;6.63;;;4.75;;
26756;SDS011;23848;49.798;10.228;2022-08-21T04:07:06;7.82;;;5.05;;
26756;SDS011;23848;49.798;10.228;2022-08-21T04:09:34;6.20;;;4.65;;
26756;SDS011;23848;49.798;10.228;2022-08-21T04:12:03;6.50;;;4.85;;
26756;SDS011;23848;49.798;10.228;2022-08-21T04:14:33;6.38;;;4.60;;
26756;SDS011;23848;49.798;10.228;2022-08-21T04:17:01;6.40;;;4.80;;
26756;SDS011;23848;49.798;10.228;2022-08-21T04:19:29;6.50;;;4.93;;
26756;SDS011;23848;49.798;10.228;2022-08-21T04:21:58;6.00;;;4.80;;
26756;SDS011;23848;49.798;10.228;2022-08-21T04:24:27;8.30;;;5.43;;
26756;SDS011;23848;49.798;10.228;2022-08-21T04:26:56;7.22;;;5.32;;
26756;SDS011;23848;49.798;10.228;2022-08-21T04:29:24;7.63;;;5.82;;
26756;SDS011;23848;49.798;10.228;2022-08-21T04:31:54;7.63;;;5.80;;
26756;SDS011;23848;49.798;10.228;2022-08-21T04:34:22;8.55;;;6.70;;
26756;SDS011;23848;49.798;10.228;2022-08-21T04:36:51;9.63;;;7.28;;
26756;SDS011;23848;49.798;10.228;2022-08-21T04:39:19;9.10;;;6.93;;
26756;SDS011;23848;49.798;10.228;2022-08-21T04:41:54;11.63;;;7.35;;
26756;SDS011;23848;49.798;10.228;2022-08-21T04:44:23;8.73;;;6.53;;
26756;SDS011;23848;49.798;10.228;2022-08-21T04:46:51;10.70;;;7.18;;
26756;SDS011;23848;49.798;10.228;2022-08-21T04:49:21;13.32;;;8.38;;
26756;SDS011;23848;49.798;10.228;2022-08-21T04:51:49;10.20;;;7.05;;
26756;SDS011;23848;49.798;10.228;2022-08-21T04:54:18;12.57;;;7.60;;
26756;SDS011;23848;49.798;10.228;2022-08-21T04:56:49;10.90;;;7.60;;
26756;SDS011;23848;49.798;10.228;2022-08-21T04:59:19;12.68;;;7.85;;
26756;SDS011;23848;49.798;10.228;2022-08-21T05:01:48;10.20;;;7.47;;
26756;SDS011;23848;49.798;10.228;2022-08-21T05:04:18;10.32;;;6.97;;
26756;SDS011;23848;49.798;10.228;2022-08-21T05:06:50;11.63;;;7.18;;
26756;SDS011;23848;49.798;10.228;2022-08-21T05:09:18;10.13;;;7.13;;
26756;SDS011;23848;49.798;10.228;2022-08-21T05:11:47;13.73;;;8.02;;
26756;SDS011;23848;49.798;10.228;2022-08-21T05:14:17;13.60;;;8.27;;
26756;SDS011;23848;49.798;10.228;2022-08-21T05:16:46;11.55;;;8.13;;
26756;SDS011;23848;49.798;10.228;2022-08-21T05:19:15;13.07;;;8.32;;
26756;SDS011;23848;49.798;10.228;2022-08-21T05:21:44;11.23;;;7.53;;
26756;SDS011;23848;49.798;10.228;2022-08-21T05:24:15;13.25;;;8.30;;
26756;SDS011;23848;49.798;10.228;2022-08-21T05:26:44;12.68;;;8.70;;
26756;SDS011;23848;49.798;10.228;2022-08-21T05:29:13;14.25;;;9.13;;
26756;SDS011;23848;49.798;10.228;2022-08-21T05:31:43;12.88;;;8.75;;
26756;SDS011;23848;49.798;10.228;2022-08-21T05:34:17;14.02;;;9.60;;
26756;SDS011;23848;49.798;10.228;2022-08-21T05:36:45;13.25;;;8.65;;
26756;SDS011;23848;49.798;10.228;2022-08-21T05:39:15;13.80;;;9.27;;
26756;SDS011;23848;49.798;10.228;2022-08-21T05:41:43;14.40;;;9.05;;
26756;SDS011;23848;49.798;10.228;2022-08-21T05:44:12;16.00;;;9.38;;
26756;SDS011;23848;49.798;10.228;2022-08-21T05:46:40;13.32;;;9.20;;
26756;SDS011;23848;49.798;10.228;2022-08-21T05:49:08;12.63;;;8.80;;
26756;SDS011;23848;49.798;10.228;2022-08-21T05:51:39;11.93;;;7.88;;
26756;SDS011;23848;49.798;10.228;2022-08-21T05:54:08;11.82;;;7.93;;
26756;SDS011;23848;49.798;10.228;2022-08-21T05:56:38;11.85;;;7.55;;
26756;SDS011;23848;49.798;10.228;2022-08-21T05:59:10;9.93;;;6.88;;
26756;SDS011;23848;49.798;10.228;2022-08-21T06:01:39;8.88;;;6.50;;
26756;SDS011;23848;49.798;10.228;2022-08-21T06:04:08;9.82;;;7.60;;
26756;SDS011;23848;49.798;10.228;2022-08-21T06:06:36;8.48;;;6.28;;
26756;SDS011;23848;49.798;10.228;2022-08-21T06:09:05;8.25;;;6.20;;
26756;SDS011;23848;49.798;10.228;2022-08-21T06:11:34;10.30;;;7.10;;
26756;SDS011;23848;49.798;10.228;2022-08-21T06:14:03;10.52;;;7.43;;
26756;SDS011;23848;49.798;10.228;2022-08-21T06:16:32;9.85;;;7.10;;
26756;SDS011;23848;49.798;10.228;2022-08-21T06:19:01;11.02;;;8.13;;
26756;SDS011;23848;49.798;10.228;2022-08-21T06:21:29;11.18;;;8.48;;
26756;SDS011;23848;49.798;10.228;2022-08-21T06:23:58;11.30;;;8.52;;
26756;SDS011;23848;49.798;10.228;2022-08-21T06:26:26;12.43;;;9.07;;
26756;SDS011;23848;49.798;10.228;2022-08-21T06:28:55;11.77;;;8.35;;
26756;SDS011;23848;49.798;10.228;2022-08-21T06:31:25;11.95;;;9.10;;
26756;SDS011;23848;49.798;10.228;2022-08-21T06:33:54;11.48;;;8.88;;
26756;SDS011;23848;49.798;10.228;2022-08-21T06:36:23;10.32;;;8.20;;
26756;SDS011;23848;49.798;10.228;2022-08-21T06:38:51;11.90;;;8.35;;
26756;SDS011;23848;49.798;10.228;2022-08-21T06:41:22;12.10;;;9.85;;
26756;SDS011;23848;49.798;10.228;2022-08-21T06:43:52;12.68;;;9.48;;
26756;SDS011;23848;49.798;10.228;2022-08-21T06:46:21;13.60;;;10.27;;
26756;SDS011;23848;49.798;10.228;2022-08-21T06:48:51;12.77;;;9.50;;
26756;SDS011;23848;49.798;10.228;2022-08-21T06:51:20;12.23;;;9.85;;
26756;SDS011;23848;49.798;10.228;2022-08-21T06:53:48;12.85;;;10.27;;
26756;SDS011;23848;49.798;10.228;2022-08-21T06:56:17;12.63;;;10.30;;
26756;SDS011;23848;49.798;10.228;2022-08-21T06:58:45;13.00;;;10.43;;
26756;SDS011;23848;49.798;10.228;2022-08-21T07:01:13;12.65;;;9.57;;
26756;SDS011;23848;49.798;10.228;2022-08-21T07:03:42;12.88;;;9.93;;
26756;SDS011;23848;49.798;10.228;2022-08-21T07:06:12;13.02;;;9.68;;
26756;SDS011;23848;49.798;10.228;2022-08-21T07:08:41;12.57;;;9.60;;
26756;SDS011;23848;49.798;10.228;2022-08-21T07:11:11;13.02;;;10.85;;
26756;SDS011;23848;49.798;10.228;2022-08-21T07:13:40;14.43;;;11.07;;
26756;SDS011;23848;49.798;10.228;2022-08-21T07:16:09;10.93;;;9.45;;
26756;SDS011;23848;49.798;10.228;2022-08-21T07:18:37;13.25;;;10.32;;
26756;SDS011;23848;49.798;10.228;2022-08-21T07:21:06;13.55;;;10.77;;
26756;SDS011;23848;49.798;10.228;2022-08-21T07:23:36;12.45;;;10.63;;
26756;SDS011;23848;49.798;10.228;2022-08-21T07:26:05;13.75;;;10.65;;
26756;SDS011;23848;49.798;10.228;2022-08-21T07:28:34;12.90;;;10.27;;
26756;SDS011;23848;49.798;10.228;2022-08-21T07:31:03;12.23;;;10.27;;
26756;SDS011;23848;49.798;10.228;2022-08-21T07:33:32;12.80;;;10.13;;
26756;SDS011;23848;49.798;10.228;2022-08-21T07:36:02;12.07;;;10.07;;
26756;SDS011;23848;49.798;10.228;2022-08-21T07:38:30;14.07;;;11.00;;
26756;SDS011;23848;49.798;10.228;2022-08-21T07:41:00;13.13;;;10.68;;
26756;SDS011;23848;49.798;10.228;2022-08-21T07:43:29;13.65;;;10.30;;
26756;SDS011;23848;49.798;10.228;2022-08-21T07:45:58;13.02;;;10.40;;
26756;SDS011;23848;49.798;10.228;2022-08-21T07:48:26;13.02;;;10.93;;
26756;SDS011;23848;49.798;10.228;2022-08-21T07:50:54;14.18;;;10.65;;
26756;SDS011;23848;49.798;10.228;2022-08-21T07:53:23;12.40;;;10.30;;
26756;SDS011;23848;49.798;10.228;2022-08-21T07:55:51;12.65;;;11.02;;
26756;SDS011;23848;49.798;10.228;2022-08-21T07:58:21;12.90;;;10.43;;
26756;SDS011;23848;49.798;10.228;2022-08-21T08:00:49;12.43;;;10.20;;
26756;SDS011;23848;49.798;10.228;2022-08-21T08:03:18;13.13;;;10.50;;
26756;SDS011;23848;49.798;10.228;2022-08-21T08:05:55;12.15;;;9.95;;
26756;SDS011;23848;49.798;10.228;2022-08-21T08:08:24;11.90;;;9.95;;
26756;SDS011;23848;49.798;10.228;2022-08-21T08:10:52;11.32;;;9.65;;
26756;SDS011;23848;49.798;10.228;2022-08-21T08:13:23;12.45;;;10.68;;
26756;SDS011;23848;49.798;10.228;2022-08-21T08:15:51;13.13;;;10.73;;
26756;SDS011;23848;49.798;10.228;2022-08-21T08:18:20;12.25;;;10.70;;
26756;SDS011;23848;49.798;10.228;2022-08-21T08:20:48;13.43;;;11.32;;
26756;SDS011;23848;49.798;10.228;2022-08-21T08:23:16;13.23;;;10.57;;
26756;SDS011;23848;49.798;10.228;2022-08-21T08:25:45;14.27;;;11.48;;
26756;SDS011;23848;49.798;10.228;2022-08-21T08:28:13;14.88;;;12.50;;
26756;SDS011;23848;49.798;10.228;2022-08-21T08:30:44;14.80;;;11.85;;
26756;SDS011;23848;49.798;10.228;2022-08-21T08:33:13;14.13;;;11.63;;
26756;SDS011;23848;49.798;10.228;2022-08-21T08:35:41;15.13;;;11.55;;
26756;SDS011;23848;49.798;10.228;2022-08-21T08:38:10;15.07;;;12.25;;
26756;SDS011;23848;49.798;10.228;2022-08-21T08:40:45;13.77;;;11.77;;
26756;SDS011;23848;49.798;10.228;2022-08-21T08:43:14;13.57;;;11.20;;
26756;SDS011;23848;49.798;10.228;2022-08-21T08:45:43;12.90;;;10.05;;
26756;SDS011;23848;49.798;10.228;2022-08-21T08:48:18;12.30;;;10.15;;
26756;SDS011;23848;49.798;10.228;2022-08-21T08:50:55;13.68;;;10.90;;
26756;SDS011;23848;49.798;10.228;2022-08-21T08:53:25;12.57;;;10.50;;
26756;SDS011;23848;49.798;10.228;2022-08-21T08:55:55;12.90;;;10.90;;
26756;SDS011;23848;49.798;10.228;2022-08-21T08:58:27;12.88;;;10.20;;
26756;SDS011;23848;49.798;10.228;2022-08-21T09:00:56;12.88;;;10.20;;
26756;SDS011;23848;49.798;10.228;2022-08-21T09:03:27;12.93;;;9.70;;
26756;SDS011;23848;49.798;10.228;2022-08-21T09:05:56;12.07;;;9.75;;
26756;SDS011;23848;49.798;10.228;2022-08-21T09:08:29;11.07;;;9.18;;
26756;SDS011;23848;49.798;10.228;2022-08-21T09:11:01;11.00;;;8.80;;
26756;SDS011;23848;49.798;10.228;2022-08-21T09:13:38;12.35;;;8.75;;
26756;SDS011;23848;49.798;10.228;2022-08-21T09:16:11;11.35;;;8.52;;
26756;SDS011;23848;49.798;10.228;2022-08-21T09:18:45;10.00;;;8.00;;
26756;SDS011;23848;49.798;10.228;2022-08-21T09:21:20;10.20;;;8.48;;
26756;SDS011;23848;49.798;10.228;2022-08-21T09:23:53;10.95;;;8.25;;
26756;SDS011;23848;49.798;10.228;2022-08-21T09:26:24;10.43;;;8.30;;
26756;SDS011;23848;49.798;10.228;2022-08-21T09:28:54;9.13;;;7.75;;
26756;SDS011;23848;49.798;10.228;2022-08-21T09:31:24;9.07;;;6.45;;
26756;SDS011;23848;49.798;10.228;2022-08-21T09:33:58;9.80;;;7.70;;
26756;SDS011;23848;49.798;10.228;2022-08-21T09:36:30;9.27;;;7.82;;
26756;SDS011;23848;49.798;10.228;2022-08-21T09:38:59;8.63;;;7.40;;
26756;SDS011;23848;49.798;10.228;2022-08-21T09:41:28;9.88;;;7.68;;
26756;SDS011;23848;49.798;10.228;2022-08-21T09:43:57;8.98;;;6.97;;
26756;SDS011;23848;49.798;10.228;2022-08-21T09:46:26;8.70;;;6.75;;
26756;SDS011;23848;49.798;10.228;2022-08-21T09:48:56;6.07;;;5.25;;
26756;SDS011;23848;49.798;10.228;2022-08-21T09:51:29;7.15;;;4.85;;
26756;SDS011;23848;49.798;10.228;2022-08-21T09:54:12;8.05;;;5.30;;
26756;SDS011;23848;49.798;10.228;2022-08-21T09:56:51;5.40;;;4.47;;
26756;SDS011;23848;49.798;10.228;2022-08-21T09:59:39;4.53;;;3.42;;
26756;SDS011;23848;49.798;10.228;2022-08-21T10:02:22;5.97;;;3.90;;
26756;SDS011;23848;49.798;10.228;2022-08-21T10:04:51;5.40;;;4.57;;
26756;SDS011;23848;49.798;10.228;2022-08-21T10:07:22;6.20;;;4.82;;
26756;SDS011;23848;49.798;10.228;2022-08-21T10:09:58;5.38;;;3.75;;
26756;SDS011;23848;49.798;10.228;2022-08-21T10:12:28;6.70;;;4.80;;
26756;SDS011;23848;49.798;10.228;2022-08-21T10:15:00;6.78;;;5.05;;
26756;SDS011;23848;49.798;10.228;2022-08-21T10:17:35;6.40;;;5.20;;
26756;SDS011;23848;49.798;10.228;2022-08-21T10:20:06;5.53;;;4.53;;
26756;SDS011;23848;49.798;10.228;2022-08-21T10:22:40;6.50;;;4.45;;
26756;SDS011;23848;49.798;10.228;2022-08-21T10:25:14;5.75;;;4.65;;
26756;SDS011;23848;49.798;10.228;2022-08-21T10:27:48;5.82;;;4.22;;
26756;SDS011;23848;49.798;10.228;2022-08-21T10:30:21;7.00;;;4.45;;
26756;SDS011;23848;49.798;10.228;2022-08-21T10:32:58;5.55;;;4.13;;
26756;SDS011;23848;49.798;10.228;2022-08-21T10:35:31;5.13;;;3.72;;
26756;SDS011;23848;49.798;10.228;2022-08-21T10:38:06;4.78;;;3.90;;
26756;SDS011;23848;49.798;10.228;2022-08-21T10:40:58;4.88;;;3.50;;
26756;SDS011;23848;49.798;10.228;2022-08-21T10:43:30;4.95;;;3.35;;
26756;SDS011;23848;49.798;10.228;2022-08-21T10:46:06;5.93;;;3.28;;
26756;SDS011;23848;49.798;10.228;2022-08-21T10:48:36;4.25;;;3.67;;
26756;SDS011;23848;49.798;10.228;2022-08-21T10:51:06;4.30;;;2.80;;
26756;SDS011;23848;49.798;10.228;2022-08-21T10:53:47;3.83;;;2.35;;
26756;SDS011;23848;49.798;10.228;2022-08-21T10:56:19;3.33;;;2.20;;
26756;SDS011;23848;49.798;10.228;2022-08-21T10:58:51;5.13;;;2.65;;
26756;SDS011;23848;49.798;10.228;2022-08-21T11:01:23;3.28;;;2.30;;
26756;SDS011;23848;49.798;10.228;2022-08-21T11:03:54;5.63;;;2.80;;
26756;SDS011;23848;49.798;10.228;2022-08-21T11:08:58;4.25;;;2.58;;
26756;SDS011;23848;49.798;10.228;2022-08-21T11:11:29;3.45;;;2.30;;
26756;SDS011;23848;49.798;10.228;2022-08-21T11:14:02;3.90;;;3.20;;
26756;SDS011;23848;49.798;10.228;2022-08-21T11:16:33;4.07;;;2.75;;
26756;SDS011;23848;49.798;10.228;2022-08-21T11:19:05;5.17;;;3.30;;
26756;SDS011;23848;49.798;10.228;2022-08-21T11:21:36;5.95;;;3.20;;
26756;SDS011;23848;49.798;10.228;2022-08-21T11:24:17;8.40;;;3.50;;
26756;SDS011;23848;49.798;10.228;2022-08-21T11:26:49;3.95;;;3.15;;
26756;SDS011;23848;49.798;10.228;2022-08-21T11:29:21;4.13;;;2.90;;
26756;SDS011;23848;49.798;10.228;2022-08-21T11:31:56;6.35;;;3.38;;
26756;SDS011;23848;49.798;10.228;2022-08-21T11:34:33;5.07;;;2.95;;
26756;SDS011;23848;49.798;10.228;2022-08-21T11:37:08;4.97;;;2.88;;
26756;SDS011;23848;49.798;10.228;2022-08-21T11:39:44;4.97;;;2.88;;
26756;SDS011;23848;49.798;10.228;2022-08-21T11:42:15;4.20;;;3.03;;
26756;SDS011;23848;49.798;10.228;2022-08-21T11:44:47;4.90;;;3.28;;
26756;SDS011;23848;49.798;10.228;2022-08-21T11:47:19;3.75;;;2.45;;
26756;SDS011;23848;49.798;10.228;2022-08-21T11:49:54;4.03;;;2.80;;
26756;SDS011;23848;49.798;10.228;2022-08-21T11:52:26;4.18;;;2.63;;
26756;SDS011;23848;49.798;10.228;2022-08-21T11:54:59;5.13;;;3.20;;
26756;SDS011;23848;49.798;10.228;2022-08-21T11:57:31;4.20;;;2.75;;
26756;SDS011;23848;49.798;10.228;2022-08-21T12:00:03;3.40;;;2.70;;
26756;SDS011;23848;49.798;10.228;2022-08-21T12:02:34;3.08;;;2.38;;
26756;SDS011;23848;49.798;10.228;2022-08-21T12:05:04;5.03;;;2.75;;
26756;SDS011;23848;49.798;10.228;2022-08-21T12:07:35;4.10;;;2.83;;
26756;SDS011;23848;49.798;10.228;2022-08-21T12:10:06;3.25;;;2.33;;
26756;SDS011;23848;49.798;10.228;2022-08-21T12:12:35;3.80;;;2.60;;
26756;SDS011;23848;49.798;10.228;2022-08-21T12:15:11;4.05;;;2.90;;
26756;SDS011;23848;49.798;10.228;2022-08-21T12:17:41;4.22;;;2.42;;
26756;SDS011;23848;49.798;10.228;2022-08-21T12:20:33;4.05;;;2.67;;
26756;SDS011;23848;49.798;10.228;2022-08-21T12:23:03;7.10;;;2.67;;
26756;SDS011;23848;49.798;10.228;2022-08-21T12:25:40;4.38;;;2.63;;
26756;SDS011;23848;49.798;10.228;2022-08-21T12:28:09;3.70;;;2.80;;
26756;SDS011;23848;49.798;10.228;2022-08-21T12:30:39;3.83;;;2.78;;
26756;SDS011;23848;49.798;10.228;2022-08-21T12:33:19;3.88;;;2.22;;
26756;SDS011;23848;49.798;10.228;2022-08-21T12:35:48;3.55;;;2.55;;
26756;SDS011;23848;49.798;10.228;2022-08-21T12:38:18;3.97;;;2.30;;
26756;SDS011;23848;49.798;10.228;2022-08-21T12:40:50;3.58;;;2.42;;
26756;SDS011;23848;49.798;10.228;2022-08-21T12:43:21;3.55;;;2.70;;
26756;SDS011;23848;49.798;10.228;2022-08-21T12:45:52;3.78;;;2.50;;
26756;SDS011;23848;49.798;10.228;2022-08-21T12:48:22;4.18;;;2.40;;
26756;SDS011;23848;49.798;10.228;2022-08-21T12:50:53;4.45;;;1.98;;
26756;SDS011;23848;49.798;10.228;2022-08-21T12:53:25;4.18;;;2.25;;
26756;SDS011;23848;49.798;10.228;2022-08-21T12:55:55;3.17;;;2.30;;
26756;SDS011;23848;49.798;10.228;2022-08-21T12:58:28;3.20;;;2.30;;
26756;SDS011;23848;49.798;10.228;2022-08-21T13:00:59;3.15;;;2.15;;
26756;SDS011;23848;49.798;10.228;2022-08-21T13:03:27;3.30;;;2.15;;
26756;SDS011;23848;49.798;10.228;2022-08-21T13:05:57;4.35;;;2.58;;
26756;SDS011;23848;49.798;10.228;2022-08-21T13:08:26;3.42;;;2.40;;
26756;SDS011;23848;49.798;10.228;2022-08-21T13:10:59;4.57;;;2.42;;
26756;SDS011;23848;49.798;10.228;2022-08-21T13:13:40;4.03;;;2.70;;
26756;SDS011;23848;49.798;10.228;2022-08-21T13:16:12;6.60;;;2.50;;
26756;SDS011;23848;49.798;10.228;2022-08-21T13:18:51;3.47;;;2.15;;
26756;SDS011;23848;49.798;10.228;2022-08-21T13:21:21;3.70;;;2.28;;
26756;SDS011;23848;49.798;10.228;2022-08-21T13:23:49;3.70;;;2.38;;
26756;SDS011;23848;49.798;10.228;2022-08-21T13:26:20;3.28;;;2.28;;
26756;SDS011;23848;49.798;10.228;2022-08-21T13:28:49;3.63;;;2.30;;
26756;SDS011;23848;49.798;10.228;2022-08-21T13:31:18;4.93;;;2.50;;
26756;SDS011;23848;49.798;10.228;2022-08-21T13:33:48;3.67;;;2.30;;
26756;SDS011;23848;49.798;10.228;2022-08-21T13:36:19;3.20;;;2.25;;
26756;SDS011;23848;49.798;10.228;2022-08-21T13:38:48;4.18;;;2.58;;
26756;SDS011;23848;49.798;10.228;2022-08-21T13:41:21;3.38;;;2.30;;
26756;SDS011;23848;49.798;10.228;2022-08-21T13:43:51;3.95;;;2.50;;
26756;SDS011;23848;49.798;10.228;2022-08-21T13:46:24;3.28;;;2.20;;
26756;SDS011;23848;49.798;10.228;2022-08-21T13:48:54;3.92;;;2.35;;
26756;SDS011;23848;49.798;10.228;2022-08-21T13:51:24;3.47;;;2.40;;
26756;SDS011;23848;49.798;10.228;2022-08-21T13:53:53;4.20;;;2.20;;
26756;SDS011;23848;49.798;10.228;2022-08-21T13:56:23;5.65;;;2.67;;
26756;SDS011;23848;49.798;10.228;2022-08-21T13:58:53;3.88;;;2.70;;
26756;SDS011;23848;49.798;10.228;2022-08-21T14:01:22;4.38;;;2.63;;
26756;SDS011;23848;49.798;10.228;2022-08-21T14:03:52;4.38;;;2.50;;
26756;SDS011;23848;49.798;10.228;2022-08-21T14:06:24;3.30;;;2.40;;
26756;SDS011;23848;49.798;10.228;2022-08-21T14:08:54;6.80;;;2.50;;
26756;SDS011;23848;49.798;10.228;2022-08-21T14:11:25;4.43;;;2.38;;
26756;SDS011;23848;49.798;10.228;2022-08-21T14:13:56;4.22;;;2.28;;
26756;SDS011;23848;49.798;10.228;2022-08-21T14:16:26;4.35;;;2.22;;
26756;SDS011;23848;49.798;10.228;2022-08-21T14:19:07;3.45;;;2.08;;
26756;SDS011;23848;49.798;10.228;2022-08-21T14:21:37;4.68;;;2.45;;
26756;SDS011;23848;49.798;10.228;2022-08-21T14:24:08;4.85;;;2.45;;
26756;SDS011;23848;49.798;10.228;2022-08-21T14:26:42;4.47;;;2.30;;
26756;SDS011;23848;49.798;10.228;2022-08-21T14:29:12;5.00;;;2.28;;
26756;SDS011;23848;49.798;10.228;2022-08-21T14:31:41;4.20;;;2.15;;
26756;SDS011;23848;49.798;10.228;2022-08-21T14:34:11;3.95;;;2.45;;
26756;SDS011;23848;49.798;10.228;2022-08-21T14:36:45;4.43;;;2.33;;
26756;SDS011;23848;49.798;10.228;2022-08-21T14:39:13;3.70;;;2.03;;
26756;SDS011;23848;49.798;10.228;2022-08-21T14:41:43;5.10;;;2.60;;
26756;SDS011;23848;49.798;10.228;2022-08-21T14:44:15;3.92;;;2.47;;
26756;SDS011;23848;49.798;10.228;2022-08-21T14:46:44;4.15;;;2.50;;
26756;SDS011;23848;49.798;10.228;2022-08-21T14:49:22;4.88;;;2.08;;